Погода Нижнеясиновскийна неделю

Ростовская область, Россия

18 - 24 июля
  • 18июля
    Сегодня
    +22°
    +39°
    Ясно и безоблачно
    ВремяПогодаТемператураВлажностьДавлениеВетер, м/сВероятность осадков
    00:00Ясно и безоблачно+28°C38 %749 мм0.9 м/с2 %
    03:00Ясно и безоблачно+24°C49 %748 мм1.7 м/с2 %
    06:00Ясно и безоблачно+24°C47 %748 мм1.9 м/с2 %
    09:00Ясно и безоблачно+33°C30 %749 мм2.2 м/с2 %
    12:00Практически безоблачно+37°C25 %748 мм1.4 м/с2 %
    15:00Ясно и безоблачно+38°C21 %747 мм0.4 м/с2 %
    18:00Ясно и безоблачно+38°C19 %746 мм1.7 м/с2 %
    21:00Практически безоблачно+31°C27 %746 мм1.5 м/с2 %
  • 19июля
    Пятница
    +23°
    +39°
    Небольшая облачность
    ВремяПогодаТемператураВлажностьДавлениеВетер, м/сВероятность осадков
    00:00Ясно и безоблачно+28°C33 %746 мм2.8 м/с2 %
    03:00Ясно и безоблачно+25°C42 %745 мм2.1 м/с2 %
    06:00Ясно и безоблачно+25°C44 %745 мм1.9 м/с2 %
    09:00Ясно и безоблачно+33°C28 %745 мм1.0 м/с2 %
    12:00Ясно и безоблачно+38°C22 %744 мм1.8 м/с2 %
    15:00Небольшая облачность+36°C30 %744 мм6.0 м/с12 %
    18:00Небольшая облачность+32°C34 %744 мм4.7 м/с10 %
    21:00Облачно с прояснениями+30°C40 %744 мм3.3 м/с2 %
  • 20июля
    Суббота
    +20°
    +36°
    Практически безоблачно
    ВремяПогодаТемператураВлажностьДавлениеВетер, м/сВероятность осадков
    00:00Небольшая облачность+27°C53 %743 мм2.6 м/с2 %
    03:00Облачно с прояснениями+24°C61 %743 мм3.0 м/с1 %
    06:00Ясно и безоблачно+24°C67 %744 мм4.2 м/с2 %
    09:00Ясно и безоблачно+29°C51 %744 мм4.0 м/с2 %
    12:00Ясно и безоблачно+34°C31 %744 мм4.0 м/с2 %
    15:00Практически безоблачно+35°C25 %743 мм3.8 м/с2 %
    18:00Практически безоблачно+35°C25 %743 мм3.8 м/с3 %
    21:00Облачно с прояснениями+28°C31 %744 мм2.5 м/с2 %
  • 21июля
    Воскресенье
    +23°
    +36°
    Ясно и безоблачно
    ВремяПогодаТемператураВлажностьДавлениеВетер, м/сВероятность осадков
    00:00Облачно с прояснениями+26°C38 %744 мм2.8 м/с2 %
    03:00Небольшая облачность+23°C47 %744 мм2.4 м/с2 %
    06:00Ясно и безоблачно+22°C50 %745 мм2.8 м/с2 %
    09:00Практически безоблачно+30°C33 %745 мм2.9 м/с2 %
    12:00Ясно и безоблачно+34°C26 %745 мм1.8 м/с2 %
    15:00Ясно и безоблачно+35°C23 %744 мм1.4 м/с2 %
    18:00Облачно с прояснениями+35°C22 %744 мм1.6 м/с2 %
    21:00Облачно с прояснениями+29°C28 %744 мм2.1 м/с2 %
  • 22июля
    Понедельник
    +19°
    +36°
    Облачно с прояснениями
    ВремяПогодаТемператураВлажностьДавлениеВетер, м/сВероятность осадков
    00:00Ясно и безоблачно+26°C36 %744 мм2.5 м/с2 %
    03:00Ясно и безоблачно+24°C41 %744 мм2.1 м/с2 %
    06:00Практически безоблачно+24°C44 %744 мм2.7 м/с4 %
    09:00Облачно с прояснениями+30°C30 %744 мм3.1 м/с5 %
    12:00Облачно с прояснениями+35°C23 %744 мм2.9 м/с7 %
    15:00Облачно с прояснениями+35°C27 %744 мм1.5 м/с10 %
    18:00Небольшая облачность+31°C33 %743 мм0.7 м/с16 %
    21:00Небольшая облачность+28°C39 %744 мм3.3 м/с8 %
Мы используем cookies
Соглашаюсь